createdAt,value
2022-07-29T00:02:29.466Z,20.70
2022-07-29T00:04:57.079Z,20.70
2022-07-29T00:07:24.582Z,20.70
2022-07-29T00:09:52.742Z,20.80
2022-07-29T00:12:26.697Z,20.70
2022-07-29T00:14:57.906Z,20.70
2022-07-29T00:17:27.395Z,20.70
2022-07-29T00:19:56.158Z,20.70
2022-07-29T00:22:23.255Z,20.70
2022-07-29T00:24:50.707Z,20.70
2022-07-29T00:27:18.915Z,20.70
2022-07-29T00:29:46.206Z,20.80
2022-07-29T00:32:13.347Z,20.70
2022-07-29T00:34:59.318Z,20.70
2022-07-29T00:37:26.108Z,20.70
2022-07-29T00:39:52.957Z,20.70
2022-07-29T00:42:19.799Z,20.70
2022-07-29T00:44:46.659Z,20.70
2022-07-29T00:47:14.211Z,20.60
2022-07-29T00:49:43.125Z,20.60
2022-07-29T00:52:11.922Z,20.60
2022-07-29T00:54:44.268Z,20.60
2022-07-29T00:57:13.577Z,20.50
2022-07-29T00:59:40.514Z,20.50
2022-07-29T01:02:07.732Z,20.50
2022-07-29T01:04:34.802Z,20.50
2022-07-29T01:07:05.512Z,20.50
2022-07-29T01:09:45.338Z,20.50
2022-07-29T01:12:22.387Z,20.50
2022-07-29T01:14:51.414Z,20.50
2022-07-29T01:17:29.640Z,20.50
2022-07-29T01:20:15.896Z,20.50
2022-07-29T01:23:26.433Z,20.50
2022-07-29T01:26:49.109Z,20.50
2022-07-29T01:29:38.504Z,20.50
2022-07-29T01:32:20.287Z,20.40
2022-07-29T01:35:18.163Z,20.40
2022-07-29T01:38:14.357Z,20.40
2022-07-29T01:40:51.673Z,20.50
2022-07-29T01:43:32.184Z,20.40
2022-07-29T01:46:05.513Z,20.40
2022-07-29T01:48:48.134Z,20.30
2022-07-29T01:51:51.348Z,20.30
2022-07-29T01:54:43.760Z,20.20
2022-07-29T01:57:20.659Z,20.10
2022-07-29T01:59:50.679Z,20.00
2022-07-29T02:02:19.338Z,20.00
2022-07-29T02:04:50.762Z,19.90
2022-07-29T02:07:22.037Z,19.90
2022-07-29T02:09:51.746Z,19.80
2022-07-29T02:12:21.111Z,19.80
2022-07-29T02:14:55.366Z,19.70
2022-07-29T02:17:33.628Z,19.70
2022-07-29T02:20:05.255Z,19.70
2022-07-29T02:22:38.148Z,19.60
2022-07-29T02:25:14.219Z,19.50
2022-07-29T02:27:43.393Z,19.50
2022-07-29T02:30:13.263Z,19.40
2022-07-29T02:32:43.027Z,19.40
2022-07-29T02:35:13.576Z,19.30
2022-07-29T02:37:43.178Z,19.30
2022-07-29T02:40:14.092Z,19.20
2022-07-29T02:42:45.162Z,19.20
2022-07-29T02:45:12.263Z,19.20
2022-07-29T02:47:49.403Z,19.20
2022-07-29T02:50:30.692Z,19.20
2022-07-29T02:53:18.729Z,19.20
2022-07-29T02:55:57.123Z,19.20
2022-07-29T02:58:35.197Z,19.30
2022-07-29T03:01:19.426Z,19.30
2022-07-29T03:03:51.740Z,19.30
2022-07-29T03:06:37.381Z,19.30
2022-07-29T03:09:12.828Z,19.30
2022-07-29T03:11:49.828Z,19.30
2022-07-29T03:14:21.860Z,19.20
2022-07-29T03:16:51.135Z,19.20
2022-07-29T03:19:19.369Z,19.10
2022-07-29T03:21:46.163Z,19.10
2022-07-29T03:24:27.022Z,19.10
2022-07-29T03:26:55.166Z,19.00
2022-07-29T03:29:21.952Z,18.90
2022-07-29T03:31:51.750Z,18.90
2022-07-29T03:34:19.010Z,18.90
2022-07-29T03:36:46.101Z,18.80
2022-07-29T03:39:18.979Z,18.80
2022-07-29T03:41:49.175Z,18.80
2022-07-29T03:44:19.007Z,18.80
2022-07-29T03:46:48.209Z,18.80
2022-07-29T03:49:17.899Z,18.80
2022-07-29T03:51:45.241Z,18.70
2022-07-29T03:54:12.335Z,18.70
2022-07-29T03:56:47.307Z,18.70
2022-07-29T03:59:17.550Z,18.70
2022-07-29T04:01:45.975Z,18.70
2022-07-29T04:04:13.740Z,18.70
2022-07-29T04:06:43.094Z,18.70
2022-07-29T04:09:11.009Z,18.60
2022-07-29T04:12:02.407Z,18.60
2022-07-29T04:14:27.607Z,18.70
2022-07-29T04:16:54.360Z,18.70
2022-07-29T04:19:21.166Z,18.60
2022-07-29T04:21:47.980Z,18.60
2022-07-29T04:24:15.314Z,18.50
2022-07-29T04:26:42.390Z,18.50
2022-07-29T04:29:09.506Z,18.50
2022-07-29T04:31:36.384Z,18.50
2022-07-29T04:34:03.235Z,18.50
2022-07-29T04:36:30.298Z,18.50
2022-07-29T04:38:57.244Z,18.50
2022-07-29T04:41:32.701Z,18.50
2022-07-29T04:44:01.873Z,18.40
2022-07-29T04:46:29.206Z,18.40
2022-07-29T04:48:56.291Z,18.30
2022-07-29T04:51:23.565Z,18.20
2022-07-29T04:53:50.396Z,18.20
2022-07-29T04:56:17.258Z,18.30
2022-07-29T04:58:44.122Z,18.30
2022-07-29T05:01:11.081Z,18.30
2022-07-29T05:03:37.912Z,18.30
2022-07-29T05:06:04.683Z,18.30
2022-07-29T05:08:31.486Z,18.30
2022-07-29T05:10:58.294Z,18.30
2022-07-29T05:13:45.187Z,18.30
2022-07-29T05:16:12.461Z,18.30
2022-07-29T05:18:39.379Z,18.30
2022-07-29T05:21:06.230Z,18.20
2022-07-29T05:23:33.049Z,18.30
2022-07-29T05:25:59.848Z,18.30
2022-07-29T05:28:26.638Z,18.30
2022-07-29T05:30:53.475Z,18.50
2022-07-29T05:33:35.633Z,18.50
2022-07-29T05:36:07.492Z,18.70
2022-07-29T05:38:36.308Z,18.70
2022-07-29T05:41:03.358Z,18.90
2022-07-29T05:43:30.814Z,19.00
2022-07-29T05:45:57.944Z,19.00
2022-07-29T05:48:25.339Z,19.10
2022-07-29T05:50:52.279Z,19.30
2022-07-29T05:53:20.543Z,19.40
2022-07-29T05:55:49.379Z,19.50
2022-07-29T05:58:16.312Z,19.60
2022-07-29T06:00:43.122Z,19.70
2022-07-29T06:03:10.132Z,19.80
2022-07-29T06:05:36.957Z,20.00
2022-07-29T06:08:06.576Z,20.10
2022-07-29T06:10:33.846Z,20.30
2022-07-29T06:13:00.589Z,20.30
2022-07-29T06:15:27.587Z,20.40
2022-07-29T06:18:00.825Z,20.50
2022-07-29T06:20:33.165Z,20.70
2022-07-29T06:23:01.118Z,20.80
2022-07-29T06:25:31.809Z,21.00
2022-07-29T06:27:58.795Z,21.10
2022-07-29T06:30:25.844Z,21.30
2022-07-29T06:32:52.677Z,21.40
2022-07-29T06:35:41.162Z,21.50
2022-07-29T06:38:25.092Z,21.70
2022-07-29T06:41:03.043Z,21.80
2022-07-29T06:43:50.152Z,21.90
2022-07-29T06:46:20.523Z,22.00
2022-07-29T06:48:48.605Z,22.10
2022-07-29T06:51:15.842Z,22.10
2022-07-29T06:54:00.330Z,22.20
2022-07-29T06:56:39.492Z,22.30
2022-07-29T06:59:08.700Z,22.50
2022-07-29T07:01:38.014Z,22.60
2022-07-29T07:04:05.303Z,22.80
2022-07-29T07:06:32.220Z,22.90
2022-07-29T07:08:59.111Z,23.00
2022-07-29T07:11:25.877Z,23.10
2022-07-29T07:13:52.638Z,23.20
2022-07-29T07:16:19.592Z,23.30
2022-07-29T07:18:46.534Z,23.50
2022-07-29T07:21:19.144Z,23.60
2022-07-29T07:23:47.167Z,23.70
2022-07-29T07:26:13.992Z,23.70
2022-07-29T07:28:40.985Z,23.70
2022-07-29T07:31:07.927Z,23.70
2022-07-29T07:33:34.752Z,23.70
2022-07-29T07:36:01.574Z,23.80
2022-07-29T07:38:28.370Z,23.90
2022-07-29T07:40:55.214Z,24.10
2022-07-29T07:43:22.740Z,24.30
2022-07-29T07:45:49.569Z,24.50
2022-07-29T07:48:16.410Z,24.50
2022-07-29T07:50:44.566Z,24.50
2022-07-29T07:53:11.722Z,24.50
2022-07-29T07:58:30.097Z,24.90
2022-07-29T08:00:56.980Z,25.10
2022-07-29T08:03:23.835Z,25.10
2022-07-29T08:05:52.634Z,25.00
2022-07-29T08:08:19.594Z,24.90
2022-07-29T08:11:00.563Z,24.80
2022-07-29T08:13:31.593Z,24.70
2022-07-29T08:16:01.239Z,24.80
2022-07-29T08:18:32.105Z,25.10
2022-07-29T08:20:59.806Z,25.30
2022-07-29T08:23:32.835Z,25.50
2022-07-29T08:26:14.517Z,25.70
2022-07-29T08:28:47.695Z,25.70
2022-07-29T08:31:15.301Z,25.80
2022-07-29T08:33:43.255Z,25.80
2022-07-29T08:36:10.543Z,25.80
2022-07-29T08:38:37.392Z,26.00
2022-07-29T08:41:04.390Z,26.30
2022-07-29T08:43:31.357Z,26.40
2022-07-29T08:45:58.216Z,26.30
2022-07-29T08:48:25.716Z,26.20
2022-07-29T08:50:57.075Z,26.20
2022-07-29T08:53:27.909Z,26.30
2022-07-29T08:55:56.143Z,26.50
2022-07-29T08:58:25.454Z,26.70
2022-07-29T09:00:57.144Z,27.00
2022-07-29T09:03:31.180Z,27.30
2022-07-29T09:06:03.567Z,27.60
2022-07-29T09:08:33.281Z,27.70
2022-07-29T09:11:03.833Z,27.80
2022-07-29T09:13:31.050Z,27.80
2022-07-29T09:15:57.955Z,28.00
2022-07-29T09:18:46.306Z,28.10
2022-07-29T09:21:35.693Z,28.30
2022-07-29T09:24:15.361Z,28.40
2022-07-29T09:26:47.242Z,28.40
2022-07-29T09:29:24.293Z,28.50
2022-07-29T09:31:54.679Z,28.60
2022-07-29T09:34:26.533Z,28.70
2022-07-29T09:36:56.354Z,28.80
2022-07-29T09:39:46.514Z,29.00
2022-07-29T09:42:14.236Z,29.10
2022-07-29T09:44:49.714Z,29.00
2022-07-29T09:47:19.337Z,28.80
2022-07-29T09:50:01.382Z,28.90
2022-07-29T09:52:30.639Z,28.90
2022-07-29T09:55:18.242Z,28.70
2022-07-29T09:57:48.201Z,28.60
2022-07-29T10:00:19.607Z,28.70
2022-07-29T10:02:47.935Z,28.60
2022-07-29T10:05:24.982Z,28.40
2022-07-29T10:07:57.970Z,28.40
2022-07-29T10:10:36.546Z,28.50
2022-07-29T10:13:13.519Z,28.60
2022-07-29T10:15:46.658Z,28.80
2022-07-29T10:18:18.053Z,29.10
2022-07-29T10:20:45.138Z,29.10
2022-07-29T10:23:12.000Z,29.20
2022-07-29T10:25:38.787Z,29.40
2022-07-29T10:28:06.766Z,29.60
2022-07-29T10:30:34.051Z,29.80
2022-07-29T10:33:41.674Z,30.20
2022-07-29T10:36:49.182Z,30.40
2022-07-29T10:39:53.570Z,30.50
2022-07-29T10:42:29.426Z,30.60
2022-07-29T10:45:00.157Z,30.80
2022-07-29T10:47:27.990Z,31.00
2022-07-29T10:50:05.211Z,30.90
2022-07-29T10:52:50.534Z,31.00
2022-07-29T10:55:45.320Z,31.10
2022-07-29T10:58:21.603Z,31.00
2022-07-29T11:01:10.139Z,31.10
2022-07-29T11:03:52.451Z,31.10
2022-07-29T11:06:26.263Z,30.90
2022-07-29T11:09:34.896Z,30.50
2022-07-29T11:12:25.411Z,30.40
2022-07-29T11:14:53.402Z,29.90
2022-07-29T11:17:20.451Z,29.60
2022-07-29T11:19:51.949Z,29.50
2022-07-29T11:22:36.634Z,29.30
2022-07-29T11:25:42.570Z,29.10
2022-07-29T11:31:11.785Z,29.00
2022-07-29T11:36:27.987Z,29.00
2022-07-29T11:42:32.068Z,29.00
2022-07-29T11:45:42.976Z,29.00
2022-07-29T11:48:28.069Z,29.00
2022-07-29T11:50:58.313Z,28.90
2022-07-29T11:53:25.672Z,28.80
2022-07-29T11:55:58.135Z,28.90
2022-07-29T11:58:25.998Z,29.10
2022-07-29T12:00:55.581Z,29.50
2022-07-29T12:03:35.546Z,29.80
2022-07-29T12:06:14.925Z,30.20
2022-07-29T12:07:03.750Z,29.00
2022-07-29T12:08:44.288Z,30.80
2022-07-29T12:11:22.615Z,31.40
2022-07-29T12:13:52.602Z,31.80
2022-07-29T12:16:25.423Z,31.90
2022-07-29T12:19:02.173Z,31.70
2022-07-29T12:21:45.688Z,31.10
2022-07-29T12:24:17.027Z,30.60
2022-07-29T12:27:01.056Z,30.30
2022-07-29T12:29:33.640Z,30.10
2022-07-29T12:32:01.623Z,30.20
2022-07-29T12:34:30.445Z,30.50
2022-07-29T12:36:57.485Z,31.10
2022-07-29T12:39:27.255Z,31.60
2022-07-29T12:42:03.317Z,32.20
2022-07-29T12:44:52.418Z,32.50
2022-07-29T12:47:20.528Z,32.20
2022-07-29T12:49:48.763Z,31.80
2022-07-29T12:52:28.057Z,31.30
2022-07-29T12:54:54.834Z,30.90
2022-07-29T12:57:22.007Z,30.50
2022-07-29T13:00:11.548Z,30.20
2022-07-29T13:02:39.834Z,29.90
2022-07-29T13:05:09.240Z,29.70
2022-07-29T13:07:55.642Z,29.50
2022-07-29T13:10:25.009Z,29.20
2022-07-29T13:13:13.723Z,29.00
2022-07-29T13:15:44.509Z,28.90
2022-07-29T13:18:33.389Z,28.70
2022-07-29T13:21:14.101Z,28.60
2022-07-29T13:23:41.643Z,28.60
2022-07-29T13:26:12.669Z,28.50
2022-07-29T13:28:39.540Z,28.40
2022-07-29T13:31:06.551Z,28.00
2022-07-29T13:33:33.407Z,27.40
2022-07-29T13:36:00.150Z,26.90
2022-07-29T13:38:31.271Z,26.50
2022-07-29T13:40:58.841Z,26.10
2022-07-29T13:43:25.646Z,25.90
2022-07-29T13:45:52.928Z,25.60
2022-07-29T13:48:19.761Z,25.40
2022-07-29T13:50:47.517Z,25.10
2022-07-29T13:53:17.709Z,24.80
2022-07-29T13:55:45.112Z,24.60
2022-07-29T13:58:11.937Z,24.40
2022-07-29T14:00:38.753Z,24.30
2022-07-29T14:03:07.223Z,24.20
2022-07-29T14:05:34.191Z,24.20
2022-07-29T14:08:00.964Z,24.10
2022-07-29T14:10:27.970Z,24.00
2022-07-29T14:12:54.750Z,23.90
2022-07-29T14:15:21.752Z,23.90
2022-07-29T14:17:48.518Z,23.80
2022-07-29T14:20:16.524Z,23.80
2022-07-29T14:22:45.016Z,23.90
2022-07-29T14:25:15.028Z,23.90
2022-07-29T14:27:44.227Z,24.00
2022-07-29T14:30:11.894Z,24.10
2022-07-29T14:32:38.672Z,24.20
2022-07-29T14:35:06.837Z,24.30
2022-07-29T14:37:37.679Z,24.40
2022-07-29T14:40:08.309Z,24.50
2022-07-29T14:42:35.371Z,24.60
2022-07-29T14:45:02.203Z,24.70
2022-07-29T14:47:29.006Z,24.90
2022-07-29T14:49:55.784Z,25.00
2022-07-29T14:52:22.571Z,25.30
2022-07-29T14:54:49.495Z,25.60
2022-07-29T14:57:16.275Z,25.90
2022-07-29T14:59:43.373Z,26.10
2022-07-29T15:02:10.285Z,26.30
2022-07-29T15:04:37.065Z,26.60
2022-07-29T15:07:04.240Z,27.70
2022-07-29T15:09:31.321Z,29.10
2022-07-29T15:11:58.448Z,30.30
2022-07-29T15:14:25.338Z,30.70
2022-07-29T15:16:52.914Z,30.40
2022-07-29T15:19:20.029Z,29.80
2022-07-29T15:21:48.813Z,29.10
2022-07-29T15:24:20.040Z,28.40
2022-07-29T15:26:47.770Z,27.90
2022-07-29T15:29:15.730Z,27.30
2022-07-29T15:31:42.815Z,26.90
2022-07-29T15:34:09.934Z,26.70
2022-07-29T15:36:53.330Z,26.40
2022-07-29T15:39:21.865Z,26.10
2022-07-29T15:41:49.828Z,25.80
2022-07-29T15:44:16.629Z,25.50
2022-07-29T15:47:02.513Z,25.30
2022-07-29T15:49:47.497Z,25.00
2022-07-29T15:52:24.985Z,24.70
2022-07-29T15:54:52.396Z,24.50
2022-07-29T15:57:19.274Z,24.10
2022-07-29T15:59:46.049Z,23.80
2022-07-29T16:02:12.874Z,23.60
2022-07-29T16:04:39.813Z,23.40
2022-07-29T16:07:07.477Z,23.10
2022-07-29T16:09:34.439Z,22.90
2022-07-29T16:12:01.182Z,22.70
2022-07-29T16:14:29.099Z,22.50
2022-07-29T16:16:56.862Z,22.50
2022-07-29T16:19:24.111Z,22.40
2022-07-29T16:21:50.905Z,22.30
2022-07-29T16:24:18.138Z,22.20
2022-07-29T16:26:44.935Z,22.20
2022-07-29T16:29:11.750Z,22.10
2022-07-29T16:31:38.737Z,22.00
2022-07-29T16:34:05.721Z,22.00
2022-07-29T16:36:32.530Z,21.90
2022-07-29T16:38:59.643Z,21.80
2022-07-29T16:41:26.521Z,21.60
2022-07-29T16:43:53.286Z,21.50
2022-07-29T16:46:21.345Z,21.50
2022-07-29T16:48:48.695Z,21.40
2022-07-29T16:51:16.066Z,21.40
2022-07-29T16:53:42.866Z,21.30
2022-07-29T16:56:12.951Z,21.20
2022-07-29T16:58:43.814Z,21.10
2022-07-29T17:01:11.896Z,21.10
2022-07-29T17:04:00.433Z,21.00
2022-07-29T17:06:29.415Z,21.00
2022-07-29T17:09:14.769Z,20.90
2022-07-29T17:11:55.122Z,20.80
2022-07-29T17:14:25.185Z,20.80
2022-07-29T17:17:00.505Z,20.70
2022-07-29T17:19:35.300Z,20.70
2022-07-29T17:22:11.719Z,20.60
2022-07-29T17:24:43.173Z,20.60
2022-07-29T17:27:10.733Z,20.50
2022-07-29T17:29:39.369Z,20.40
2022-07-29T17:32:07.945Z,20.40
2022-07-29T17:34:41.117Z,20.30
2022-07-29T17:37:10.607Z,20.20
2022-07-29T17:39:41.814Z,20.20
2022-07-29T17:42:10.969Z,20.10
2022-07-29T17:44:39.062Z,20.00
2022-07-29T17:47:09.962Z,19.90
2022-07-29T17:49:43.715Z,19.80
2022-07-29T17:52:11.396Z,19.80
2022-07-29T17:54:38.163Z,19.80
2022-07-29T17:57:04.919Z,19.80
2022-07-29T17:59:31.709Z,19.80
2022-07-29T18:01:58.547Z,19.70
2022-07-29T18:04:25.383Z,19.70
2022-07-29T18:06:52.198Z,19.70
2022-07-29T18:09:18.965Z,19.60
2022-07-29T18:11:46.190Z,19.60
2022-07-29T18:14:13.449Z,19.60
2022-07-29T18:16:40.632Z,19.60
2022-07-29T18:19:07.585Z,19.60
2022-07-29T18:21:43.682Z,19.60
2022-07-29T18:24:23.051Z,19.50
2022-07-29T18:26:49.838Z,19.50
2022-07-29T18:29:16.631Z,19.40
2022-07-29T18:31:43.436Z,19.40
2022-07-29T18:34:10.268Z,19.30
2022-07-29T18:36:37.030Z,19.30
2022-07-29T18:39:03.886Z,19.20
2022-07-29T18:41:30.618Z,19.20
2022-07-29T18:43:57.362Z,19.20
2022-07-29T18:46:25.470Z,19.20
2022-07-29T18:48:52.606Z,19.20
2022-07-29T18:51:19.609Z,19.20
2022-07-29T18:53:46.730Z,19.10
2022-07-29T18:56:13.845Z,19.10
2022-07-29T18:58:40.587Z,19.20
2022-07-29T19:01:07.368Z,19.10
2022-07-29T19:03:34.487Z,19.10
2022-07-29T19:06:01.316Z,19.10
2022-07-29T19:08:28.120Z,19.10
2022-07-29T19:10:54.875Z,19.00
2022-07-29T19:13:21.659Z,19.00
2022-07-29T19:15:48.529Z,19.00
2022-07-29T19:18:15.324Z,19.00
2022-07-29T19:20:42.270Z,19.00
2022-07-29T19:23:09.275Z,18.90
2022-07-29T19:25:37.311Z,18.90
2022-07-29T19:28:20.324Z,18.90
2022-07-29T19:30:47.205Z,18.90
2022-07-29T19:33:17.297Z,18.90
2022-07-29T19:35:45.625Z,18.80
2022-07-29T19:38:13.115Z,18.80
2022-07-29T19:40:40.079Z,18.80
2022-07-29T19:43:50.965Z,18.80
2022-07-29T19:45:54.657Z,18.70
2022-07-29T19:48:21.486Z,18.70
2022-07-29T19:50:48.354Z,18.70
2022-07-29T19:53:17.548Z,18.70
2022-07-29T19:55:44.322Z,18.70
2022-07-29T19:58:11.206Z,18.70
2022-07-29T20:00:38.020Z,18.70
2022-07-29T20:03:07.049Z,18.70
2022-07-29T20:05:33.978Z,18.70
2022-07-29T20:08:00.850Z,18.60
2022-07-29T20:10:28.363Z,18.60
2022-07-29T20:12:55.462Z,18.70
2022-07-29T20:15:22.516Z,18.70
2022-07-29T20:17:51.814Z,18.60
2022-07-29T20:20:22.978Z,18.70
2022-07-29T20:22:49.785Z,18.70
2022-07-29T20:25:16.647Z,18.70
2022-07-29T20:27:43.446Z,18.70
2022-07-29T20:30:13.325Z,18.70
2022-07-29T20:32:41.442Z,18.60
2022-07-29T20:35:09.918Z,18.70
2022-07-29T20:37:52.425Z,18.70
2022-07-29T20:40:25.180Z,18.60
2022-07-29T20:42:52.679Z,18.60
2022-07-29T20:45:20.000Z,18.60
2022-07-29T20:47:46.949Z,18.60
2022-07-29T20:50:13.787Z,18.60
2022-07-29T20:52:41.306Z,18.60
2022-07-29T20:55:09.053Z,18.50
2022-07-29T20:57:39.215Z,18.50
2022-07-29T21:00:08.045Z,18.50
2022-07-29T21:02:36.586Z,18.50
2022-07-29T21:05:03.743Z,18.50
2022-07-29T21:07:30.592Z,18.50
2022-07-29T21:09:57.499Z,18.50
2022-07-29T21:12:24.307Z,18.50
2022-07-29T21:14:51.965Z,18.50
2022-07-29T21:17:21.359Z,18.50
2022-07-29T21:19:55.111Z,18.50
2022-07-29T21:22:22.175Z,18.50
2022-07-29T21:24:49.641Z,18.50
2022-07-29T21:27:35.621Z,18.50
2022-07-29T21:30:09.865Z,18.50
2022-07-29T21:32:36.796Z,18.50
2022-07-29T21:35:15.154Z,18.40
2022-07-29T21:37:51.296Z,18.40
2022-07-29T21:40:18.123Z,18.30
2022-07-29T21:42:44.951Z,18.30
2022-07-29T21:45:15.628Z,18.30
2022-07-29T21:47:42.386Z,18.30
2022-07-29T21:50:09.576Z,18.30
2022-07-29T21:52:36.589Z,18.30
2022-07-29T21:55:04.789Z,18.20
2022-07-29T21:57:31.756Z,18.20
2022-07-29T22:00:02.742Z,18.30
2022-07-29T22:02:30.007Z,18.20
2022-07-29T22:04:56.747Z,18.20
2022-07-29T22:07:23.502Z,18.20
2022-07-29T22:09:50.280Z,18.20
2022-07-29T22:12:17.053Z,18.20
2022-07-29T22:14:43.857Z,18.20
2022-07-29T22:17:10.904Z,18.20
2022-07-29T22:19:37.978Z,18.20
2022-07-29T22:22:04.746Z,18.20
2022-07-29T22:24:31.514Z,18.20
2022-07-29T22:26:58.701Z,18.10
2022-07-29T22:29:27.118Z,18.10
2022-07-29T22:31:53.999Z,18.10
2022-07-29T22:34:20.801Z,18.10
2022-07-29T22:36:47.638Z,18.10
2022-07-29T22:39:15.591Z,18.00
2022-07-29T22:41:43.035Z,18.00
2022-07-29T22:44:09.898Z,18.00
2022-07-29T22:46:36.839Z,17.90
2022-07-29T22:49:05.161Z,17.90
2022-07-29T22:51:32.987Z,17.90
2022-07-29T22:53:59.798Z,17.90
2022-07-29T22:56:26.612Z,17.90
2022-07-29T22:58:55.339Z,17.80
2022-07-29T23:01:37.921Z,17.80
2022-07-29T23:04:06.236Z,17.80
2022-07-29T23:06:33.984Z,17.70
2022-07-29T23:09:00.741Z,17.70
2022-07-29T23:11:27.676Z,17.70
2022-07-29T23:13:54.602Z,17.70
2022-07-29T23:16:26.255Z,17.70
2022-07-29T23:18:54.565Z,17.70
2022-07-29T23:21:21.582Z,17.70
2022-07-29T23:23:48.985Z,17.60
2022-07-29T23:26:16.852Z,17.50
2022-07-29T23:28:45.263Z,17.50
2022-07-29T23:31:13.429Z,17.50
2022-07-29T23:33:41.502Z,17.50
2022-07-29T23:36:08.547Z,17.40
2022-07-29T23:38:35.359Z,17.40
2022-07-29T23:41:03.540Z,17.40
2022-07-29T23:43:30.328Z,17.40
2022-07-29T23:45:58.072Z,17.40
2022-07-29T23:48:25.105Z,17.30
2022-07-29T23:50:51.858Z,17.20
2022-07-29T23:53:18.674Z,17.20
2022-07-29T23:55:45.451Z,17.10
2022-07-29T23:58:12.233Z,17.10
